sensor_id;sensor_type;location;lat;lon;timestamp;temperature;humidity
27162;DHT22;54464;50.558;9.704;2023-03-23T00:02:30;12.60;99.00
27162;DHT22;54464;50.558;9.704;2023-03-23T00:05:10;12.60;98.90
27162;DHT22;54464;50.558;9.704;2023-03-23T00:07:35;12.70;98.80
27162;DHT22;54464;50.558;9.704;2023-03-23T00:10:01;12.70;98.90
27162;DHT22;54464;50.558;9.704;2023-03-23T00:12:30;12.60;98.70
27162;DHT22;54464;50.558;9.704;2023-03-23T00:15:00;12.70;98.80
27162;DHT22;54464;50.558;9.704;2023-03-23T00:17:27;12.70;98.70
27162;DHT22;54464;50.558;9.704;2023-03-23T00:19:53;12.70;98.70
27162;DHT22;54464;50.558;9.704;2023-03-23T00:22:18;12.70;98.50
27162;DHT22;54464;50.558;9.704;2023-03-23T00:24:47;12.80;98.40
27162;DHT22;54464;50.558;9.704;2023-03-23T00:27:16;12.80;98.50
27162;DHT22;54464;50.558;9.704;2023-03-23T00:29:41;12.80;98.50
27162;DHT22;54464;50.558;9.704;2023-03-23T00:32:08;12.70;98.50
27162;DHT22;54464;50.558;9.704;2023-03-23T00:34:40;12.70;98.50
27162;DHT22;54464;50.558;9.704;2023-03-23T00:37:07;12.70;98.40
27162;DHT22;54464;50.558;9.704;2023-03-23T00:39:33;12.70;98.40
27162;DHT22;54464;50.558;9.704;2023-03-23T00:41:59;12.70;98.50
27162;DHT22;54464;50.558;9.704;2023-03-23T00:44:28;12.70;98.70
27162;DHT22;54464;50.558;9.704;2023-03-23T00:46:55;12.60;98.70
27162;DHT22;54464;50.558;9.704;2023-03-23T00:49:22;12.70;98.60
27162;DHT22;54464;50.558;9.704;2023-03-23T00:51:53;12.70;98.60
27162;DHT22;54464;50.558;9.704;2023-03-23T00:54:19;12.70;98.90
27162;DHT22;54464;50.558;9.704;2023-03-23T00:56:46;12.70;99.00
27162;DHT22;54464;50.558;9.704;2023-03-23T00:59:11;12.70;99.90
27162;DHT22;54464;50.558;9.704;2023-03-23T01:01:37;12.60;99.90
27162;DHT22;54464;50.558;9.704;2023-03-23T01:04:03;12.50;99.90
27162;DHT22;54464;50.558;9.704;2023-03-23T01:06:30;12.30;99.90
27162;DHT22;54464;50.558;9.704;2023-03-23T01:08:58;12.20;99.90
27162;DHT22;54464;50.558;9.704;2023-03-23T01:11:24;12.20;99.90
27162;DHT22;54464;50.558;9.704;2023-03-23T01:13:51;12.10;99.90
27162;DHT22;54464;50.558;9.704;2023-03-23T01:16:17;12.00;99.90
27162;DHT22;54464;50.558;9.704;2023-03-23T01:18:45;11.80;99.90
27162;DHT22;54464;50.558;9.704;2023-03-23T01:21:17;11.70;99.90
27162;DHT22;54464;50.558;9.704;2023-03-23T01:23:43;11.70;99.90
27162;DHT22;54464;50.558;9.704;2023-03-23T01:26:21;11.70;99.90
27162;DHT22;54464;50.558;9.704;2023-03-23T01:28:47;11.80;99.90
27162;DHT22;54464;50.558;9.704;2023-03-23T01:31:16;11.80;99.90
27162;DHT22;54464;50.558;9.704;2023-03-23T01:33:43;11.90;99.90
27162;DHT22;54464;50.558;9.704;2023-03-23T01:36:17;12.00;99.90
27162;DHT22;54464;50.558;9.704;2023-03-23T01:38:45;11.90;99.90
27162;DHT22;54464;50.558;9.704;2023-03-23T01:41:11;12.00;99.90
27162;DHT22;54464;50.558;9.704;2023-03-23T01:44:01;12.00;99.90
27162;DHT22;54464;50.558;9.704;2023-03-23T01:46:31;12.10;99.90
27162;DHT22;54464;50.558;9.704;2023-03-23T01:48:59;12.20;99.90
27162;DHT22;54464;50.558;9.704;2023-03-23T01:51:26;12.20;99.90
27162;DHT22;54464;50.558;9.704;2023-03-23T01:53:59;12.20;99.90
27162;DHT22;54464;50.558;9.704;2023-03-23T01:56:32;12.20;99.90
27162;DHT22;54464;50.558;9.704;2023-03-23T01:59:03;12.20;99.90
27162;DHT22;54464;50.558;9.704;2023-03-23T02:01:29;12.10;99.90
27162;DHT22;54464;50.558;9.704;2023-03-23T02:03:56;12.00;99.90
27162;DHT22;54464;50.558;9.704;2023-03-23T02:06:23;12.00;99.90
27162;DHT22;54464;50.558;9.704;2023-03-23T02:08:50;12.10;99.90
27162;DHT22;54464;50.558;9.704;2023-03-23T02:11:20;12.20;99.90
27162;DHT22;54464;50.558;9.704;2023-03-23T02:13:46;12.20;99.90
27162;DHT22;54464;50.558;9.704;2023-03-23T02:16:39;12.20;99.90
27162;DHT22;54464;50.558;9.704;2023-03-23T02:19:32;12.20;99.90
27162;DHT22;54464;50.558;9.704;2023-03-23T02:27:31;12.20;99.90
27162;DHT22;54464;50.558;9.704;2023-03-23T02:33:34;12.20;99.90
27162;DHT22;54464;50.558;9.704;2023-03-23T02:36:06;12.20;99.90
27162;DHT22;54464;50.558;9.704;2023-03-23T02:41:08;12.30;99.90
27162;DHT22;54464;50.558;9.704;2023-03-23T02:43:40;12.40;99.90
27162;DHT22;54464;50.558;9.704;2023-03-23T02:46:08;12.40;99.90
27162;DHT22;54464;50.558;9.704;2023-03-23T02:48:36;12.40;99.90
27162;DHT22;54464;50.558;9.704;2023-03-23T02:51:04;12.40;99.90
27162;DHT22;54464;50.558;9.704;2023-03-23T02:53:33;12.50;99.90
27162;DHT22;54464;50.558;9.704;2023-03-23T02:56:00;12.40;99.90
27162;DHT22;54464;50.558;9.704;2023-03-23T02:58:28;12.40;99.90
27162;DHT22;54464;50.558;9.704;2023-03-23T03:00:55;12.40;99.90
27162;DHT22;54464;50.558;9.704;2023-03-23T03:03:24;12.30;99.90
27162;DHT22;54464;50.558;9.704;2023-03-23T03:06:00;12.20;99.90
27162;DHT22;54464;50.558;9.704;2023-03-23T03:08:40;12.20;99.90
27162;DHT22;54464;50.558;9.704;2023-03-23T03:11:13;12.30;99.90
27162;DHT22;54464;50.558;9.704;2023-03-23T03:13:59;12.30;99.90
27162;DHT22;54464;50.558;9.704;2023-03-23T03:16:45;12.30;99.90
27162;DHT22;54464;50.558;9.704;2023-03-23T03:19:19;12.50;99.90
27162;DHT22;54464;50.558;9.704;2023-03-23T03:21:52;12.50;99.90
27162;DHT22;54464;50.558;9.704;2023-03-23T03:24:20;12.40;99.90
27162;DHT22;54464;50.558;9.704;2023-03-23T03:26:49;12.30;99.90
27162;DHT22;54464;50.558;9.704;2023-03-23T03:29:21;12.10;99.90
27162;DHT22;54464;50.558;9.704;2023-03-23T03:31:49;11.90;99.90
27162;DHT22;54464;50.558;9.704;2023-03-23T03:34:17;11.70;99.90
27162;DHT22;54464;50.558;9.704;2023-03-23T03:36:47;11.60;99.90
27162;DHT22;54464;50.558;9.704;2023-03-23T03:39:14;11.50;99.90
27162;DHT22;54464;50.558;9.704;2023-03-23T03:41:41;11.50;99.90
27162;DHT22;54464;50.558;9.704;2023-03-23T03:44:07;11.60;99.90
27162;DHT22;54464;50.558;9.704;2023-03-23T03:46:34;11.70;99.90
27162;DHT22;54464;50.558;9.704;2023-03-23T03:49:02;11.60;99.90
27162;DHT22;54464;50.558;9.704;2023-03-23T03:51:29;11.30;99.90
27162;DHT22;54464;50.558;9.704;2023-03-23T03:53:55;11.20;99.90
27162;DHT22;54464;50.558;9.704;2023-03-23T03:56:22;11.10;99.90
27162;DHT22;54464;50.558;9.704;2023-03-23T03:58:48;11.30;99.90
27162;DHT22;54464;50.558;9.704;2023-03-23T04:01:16;11.30;99.90
27162;DHT22;54464;50.558;9.704;2023-03-23T04:03:42;11.40;99.90
27162;DHT22;54464;50.558;9.704;2023-03-23T04:06:08;11.10;99.90
27162;DHT22;54464;50.558;9.704;2023-03-23T04:08:34;10.60;99.90
27162;DHT22;54464;50.558;9.704;2023-03-23T04:11:01;10.10;99.90
27162;DHT22;54464;50.558;9.704;2023-03-23T04:13:27;9.90;99.90
27162;DHT22;54464;50.558;9.704;2023-03-23T04:15:52;9.80;99.90
27162;DHT22;54464;50.558;9.704;2023-03-23T04:18:18;9.70;99.90
27162;DHT22;54464;50.558;9.704;2023-03-23T04:20:46;9.70;99.90
27162;DHT22;54464;50.558;9.704;2023-03-23T04:23:16;9.60;99.90
27162;DHT22;54464;50.558;9.704;2023-03-23T04:25:47;9.60;99.90
27162;DHT22;54464;50.558;9.704;2023-03-23T04:28:14;9.60;99.90
27162;DHT22;54464;50.558;9.704;2023-03-23T04:30:42;9.60;99.90
27162;DHT22;54464;50.558;9.704;2023-03-23T04:33:09;9.60;99.90
27162;DHT22;54464;50.558;9.704;2023-03-23T04:35:40;9.70;99.90
27162;DHT22;54464;50.558;9.704;2023-03-23T04:38:06;9.70;99.90
27162;DHT22;54464;50.558;9.704;2023-03-23T04:40:35;9.70;99.90
27162;DHT22;54464;50.558;9.704;2023-03-23T04:43:00;9.70;99.90
27162;DHT22;54464;50.558;9.704;2023-03-23T04:45:31;9.70;99.90
27162;DHT22;54464;50.558;9.704;2023-03-23T04:47:57;9.70;99.90
27162;DHT22;54464;50.558;9.704;2023-03-23T04:50:28;9.70;99.90
27162;DHT22;54464;50.558;9.704;2023-03-23T04:52:56;9.70;99.90
27162;DHT22;54464;50.558;9.704;2023-03-23T04:55:24;9.70;99.90
27162;DHT22;54464;50.558;9.704;2023-03-23T04:57:50;9.70;99.90
27162;DHT22;54464;50.558;9.704;2023-03-23T05:00:17;9.70;99.90
27162;DHT22;54464;50.558;9.704;2023-03-23T05:02:44;9.60;99.90
27162;DHT22;54464;50.558;9.704;2023-03-23T05:05:13;9.60;99.90
27162;DHT22;54464;50.558;9.704;2023-03-23T05:07:40;9.50;99.90
27162;DHT22;54464;50.558;9.704;2023-03-23T05:10:07;9.50;99.90
27162;DHT22;54464;50.558;9.704;2023-03-23T05:12:34;9.40;99.90
27162;DHT22;54464;50.558;9.704;2023-03-23T05:15:00;9.40;99.90
27162;DHT22;54464;50.558;9.704;2023-03-23T05:17:26;9.40;99.90
27162;DHT22;54464;50.558;9.704;2023-03-23T05:19:52;9.40;99.90
27162;DHT22;54464;50.558;9.704;2023-03-23T05:22:19;9.40;99.90
27162;DHT22;54464;50.558;9.704;2023-03-23T05:24:46;9.40;99.90
27162;DHT22;54464;50.558;9.704;2023-03-23T05:27:13;9.40;99.90
27162;DHT22;54464;50.558;9.704;2023-03-23T05:29:40;9.40;99.90
27162;DHT22;54464;50.558;9.704;2023-03-23T05:32:07;9.40;99.90
27162;DHT22;54464;50.558;9.704;2023-03-23T05:34:34;9.40;99.90
27162;DHT22;54464;50.558;9.704;2023-03-23T05:37:01;9.40;99.90
27162;DHT22;54464;50.558;9.704;2023-03-23T05:39:28;9.40;99.90
27162;DHT22;54464;50.558;9.704;2023-03-23T05:41:55;9.30;99.90
27162;DHT22;54464;50.558;9.704;2023-03-23T05:44:21;9.30;99.90
27162;DHT22;54464;50.558;9.704;2023-03-23T05:46:47;9.30;99.90
27162;DHT22;54464;50.558;9.704;2023-03-23T05:49:14;9.30;99.90
27162;DHT22;54464;50.558;9.704;2023-03-23T05:51:42;9.30;99.90
27162;DHT22;54464;50.558;9.704;2023-03-23T05:54:08;9.30;99.90
27162;DHT22;54464;50.558;9.704;2023-03-23T05:56:35;9.20;99.90
27162;DHT22;54464;50.558;9.704;2023-03-23T05:59:01;9.20;99.90
27162;DHT22;54464;50.558;9.704;2023-03-23T06:01:28;9.30;99.90
27162;DHT22;54464;50.558;9.704;2023-03-23T06:03:54;9.20;99.90
27162;DHT22;54464;50.558;9.704;2023-03-23T06:06:24;9.20;99.90
27162;DHT22;54464;50.558;9.704;2023-03-23T06:08:50;9.20;99.90
27162;DHT22;54464;50.558;9.704;2023-03-23T06:11:16;9.20;99.90
27162;DHT22;54464;50.558;9.704;2023-03-23T06:13:42;9.20;99.90
27162;DHT22;54464;50.558;9.704;2023-03-23T06:16:08;9.30;99.90
27162;DHT22;54464;50.558;9.704;2023-03-23T06:18:34;9.30;99.90
27162;DHT22;54464;50.558;9.704;2023-03-23T06:21:02;9.30;99.90
27162;DHT22;54464;50.558;9.704;2023-03-23T06:23:29;9.20;99.90
27162;DHT22;54464;50.558;9.704;2023-03-23T06:25:58;9.30;99.90
27162;DHT22;54464;50.558;9.704;2023-03-23T06:28:24;9.20;99.90
27162;DHT22;54464;50.558;9.704;2023-03-23T06:30:50;9.20;99.90
27162;DHT22;54464;50.558;9.704;2023-03-23T06:33:16;9.30;99.90
27162;DHT22;54464;50.558;9.704;2023-03-23T06:35:42;9.30;99.90
27162;DHT22;54464;50.558;9.704;2023-03-23T06:38:09;9.40;99.90
27162;DHT22;54464;50.558;9.704;2023-03-23T06:40:35;9.40;99.90
27162;DHT22;54464;50.558;9.704;2023-03-23T06:43:02;9.50;99.90
27162;DHT22;54464;50.558;9.704;2023-03-23T06:45:28;9.60;99.90
27162;DHT22;54464;50.558;9.704;2023-03-23T06:47:54;9.60;99.90
27162;DHT22;54464;50.558;9.704;2023-03-23T06:50:19;9.60;99.90
27162;DHT22;54464;50.558;9.704;2023-03-23T06:52:47;9.70;99.90
27162;DHT22;54464;50.558;9.704;2023-03-23T06:55:13;9.70;99.90
27162;DHT22;54464;50.558;9.704;2023-03-23T06:57:40;9.70;99.90
27162;DHT22;54464;50.558;9.704;2023-03-23T07:00:06;9.60;99.90
27162;DHT22;54464;50.558;9.704;2023-03-23T07:02:34;9.60;99.90
27162;DHT22;54464;50.558;9.704;2023-03-23T07:05:01;9.50;99.90
27162;DHT22;54464;50.558;9.704;2023-03-23T07:07:26;9.50;99.90
27162;DHT22;54464;50.558;9.704;2023-03-23T07:09:52;9.50;99.90
27162;DHT22;54464;50.558;9.704;2023-03-23T07:12:18;9.50;99.90
27162;DHT22;54464;50.558;9.704;2023-03-23T07:14:43;9.50;99.90
27162;DHT22;54464;50.558;9.704;2023-03-23T07:17:09;9.50;99.90
27162;DHT22;54464;50.558;9.704;2023-03-23T07:19:35;9.60;99.90
27162;DHT22;54464;50.558;9.704;2023-03-23T07:22:03;9.60;99.90
27162;DHT22;54464;50.558;9.704;2023-03-23T07:24:29;9.70;99.90
27162;DHT22;54464;50.558;9.704;2023-03-23T07:26:55;9.70;99.90
27162;DHT22;54464;50.558;9.704;2023-03-23T07:29:21;9.80;99.90
27162;DHT22;54464;50.558;9.704;2023-03-23T07:31:47;9.80;99.90
27162;DHT22;54464;50.558;9.704;2023-03-23T07:34:13;9.80;99.90
27162;DHT22;54464;50.558;9.704;2023-03-23T07:36:38;9.80;99.90
27162;DHT22;54464;50.558;9.704;2023-03-23T07:39:05;9.90;99.90
27162;DHT22;54464;50.558;9.704;2023-03-23T07:41:31;9.90;99.90
27162;DHT22;54464;50.558;9.704;2023-03-23T07:43:57;10.00;99.90
27162;DHT22;54464;50.558;9.704;2023-03-23T07:46:23;10.10;99.90
27162;DHT22;54464;50.558;9.704;2023-03-23T07:48:48;10.10;99.90
27162;DHT22;54464;50.558;9.704;2023-03-23T07:51:15;10.20;99.90
27162;DHT22;54464;50.558;9.704;2023-03-23T07:53:42;10.20;99.90
27162;DHT22;54464;50.558;9.704;2023-03-23T07:56:11;10.20;99.90
27162;DHT22;54464;50.558;9.704;2023-03-23T07:58:38;10.20;99.90
27162;DHT22;54464;50.558;9.704;2023-03-23T08:01:03;10.10;99.90
27162;DHT22;54464;50.558;9.704;2023-03-23T08:03:29;10.10;99.90
27162;DHT22;54464;50.558;9.704;2023-03-23T08:05:58;10.00;99.90
27162;DHT22;54464;50.558;9.704;2023-03-23T08:08:25;10.00;99.90
27162;DHT22;54464;50.558;9.704;2023-03-23T08:10:50;10.00;99.90
27162;DHT22;54464;50.558;9.704;2023-03-23T08:13:16;9.90;99.90
27162;DHT22;54464;50.558;9.704;2023-03-23T08:15:43;9.90;99.90
27162;DHT22;54464;50.558;9.704;2023-03-23T08:18:09;9.90;99.90
27162;DHT22;54464;50.558;9.704;2023-03-23T08:20:35;9.90;99.90
27162;DHT22;54464;50.558;9.704;2023-03-23T08:23:02;9.90;99.90
27162;DHT22;54464;50.558;9.704;2023-03-23T08:25:29;9.90;99.90
27162;DHT22;54464;50.558;9.704;2023-03-23T08:27:57;9.90;99.90
27162;DHT22;54464;50.558;9.704;2023-03-23T08:30:23;10.00;99.90
27162;DHT22;54464;50.558;9.704;2023-03-23T08:32:51;10.00;99.90
27162;DHT22;54464;50.558;9.704;2023-03-23T08:35:18;10.00;99.90
27162;DHT22;54464;50.558;9.704;2023-03-23T08:37:45;10.10;99.90
27162;DHT22;54464;50.558;9.704;2023-03-23T08:40:13;10.10;99.90
27162;DHT22;54464;50.558;9.704;2023-03-23T08:42:41;10.20;99.90
27162;DHT22;54464;50.558;9.704;2023-03-23T08:45:10;10.20;99.90
27162;DHT22;54464;50.558;9.704;2023-03-23T08:47:37;10.20;99.90
27162;DHT22;54464;50.558;9.704;2023-03-23T08:50:05;10.20;99.90
27162;DHT22;54464;50.558;9.704;2023-03-23T08:52:31;10.20;99.90
27162;DHT22;54464;50.558;9.704;2023-03-23T08:54:57;10.20;99.90
27162;DHT22;54464;50.558;9.704;2023-03-23T08:57:24;10.20;99.90
27162;DHT22;54464;50.558;9.704;2023-03-23T08:59:50;10.20;99.90
27162;DHT22;54464;50.558;9.704;2023-03-23T09:02:16;10.30;99.90
27162;DHT22;54464;50.558;9.704;2023-03-23T09:04:43;10.30;99.90
27162;DHT22;54464;50.558;9.704;2023-03-23T09:07:12;10.30;99.90
27162;DHT22;54464;50.558;9.704;2023-03-23T09:09:40;10.30;99.90
27162;DHT22;54464;50.558;9.704;2023-03-23T09:12:07;10.30;99.90
27162;DHT22;54464;50.558;9.704;2023-03-23T09:14:36;10.40;99.90
27162;DHT22;54464;50.558;9.704;2023-03-23T09:17:04;10.40;99.90
27162;DHT22;54464;50.558;9.704;2023-03-23T09:19:31;10.40;99.90
27162;DHT22;54464;50.558;9.704;2023-03-23T09:21:58;10.40;99.90
27162;DHT22;54464;50.558;9.704;2023-03-23T09:24:24;10.40;99.90
27162;DHT22;54464;50.558;9.704;2023-03-23T09:26:50;10.50;99.90
27162;DHT22;54464;50.558;9.704;2023-03-23T09:29:16;10.50;99.90
27162;DHT22;54464;50.558;9.704;2023-03-23T09:31:42;10.50;99.90
27162;DHT22;54464;50.558;9.704;2023-03-23T09:34:09;10.50;99.90
27162;DHT22;54464;50.558;9.704;2023-03-23T09:36:37;10.50;99.90
27162;DHT22;54464;50.558;9.704;2023-03-23T09:39:05;10.50;99.90
27162;DHT22;54464;50.558;9.704;2023-03-23T09:44:30;10.40;99.90
27162;DHT22;54464;50.558;9.704;2023-03-23T09:47:18;10.40;99.90
27162;DHT22;54464;50.558;9.704;2023-03-23T09:49:55;10.40;99.90
27162;DHT22;54464;50.558;9.704;2023-03-23T09:52:22;10.40;99.90
27162;DHT22;54464;50.558;9.704;2023-03-23T09:54:54;10.40;99.90
27162;DHT22;54464;50.558;9.704;2023-03-23T10:00:14;10.50;99.90
27162;DHT22;54464;50.558;9.704;2023-03-23T10:05:34;10.50;99.90
27162;DHT22;54464;50.558;9.704;2023-03-23T10:08:02;10.60;99.90
27162;DHT22;54464;50.558;9.704;2023-03-23T10:16:12;10.80;99.90
27162;DHT22;54464;50.558;9.704;2023-03-23T10:21:23;10.90;99.90
27162;DHT22;54464;50.558;9.704;2023-03-23T10:23:59;11.10;99.90
27162;DHT22;54464;50.558;9.704;2023-03-23T10:26:53;11.20;99.90
27162;DHT22;54464;50.558;9.704;2023-03-23T10:29:26;11.20;99.90
27162;DHT22;54464;50.558;9.704;2023-03-23T10:32:00;11.10;99.90
27162;DHT22;54464;50.558;9.704;2023-03-23T10:34:48;11.10;99.90
27162;DHT22;54464;50.558;9.704;2023-03-23T10:37:31;11.00;99.90
27162;DHT22;54464;50.558;9.704;2023-03-23T10:40:00;11.10;99.90
27162;DHT22;54464;50.558;9.704;2023-03-23T10:42:33;11.20;99.90
27162;DHT22;54464;50.558;9.704;2023-03-23T10:47:48;11.10;99.90
27162;DHT22;54464;50.558;9.704;2023-03-23T10:50:18;11.00;99.90
27162;DHT22;54464;50.558;9.704;2023-03-23T10:52:49;10.90;99.90
27162;DHT22;54464;50.558;9.704;2023-03-23T10:55:21;10.80;99.90
27162;DHT22;54464;50.558;9.704;2023-03-23T10:58:02;10.80;99.90
27162;DHT22;54464;50.558;9.704;2023-03-23T11:00:29;10.80;99.90
27162;DHT22;54464;50.558;9.704;2023-03-23T11:03:04;10.80;99.90
27162;DHT22;54464;50.558;9.704;2023-03-23T11:05:42;10.80;99.90
27162;DHT22;54464;50.558;9.704;2023-03-23T11:08:35;10.80;99.90
27162;DHT22;54464;50.558;9.704;2023-03-23T11:11:19;10.80;99.90
27162;DHT22;54464;50.558;9.704;2023-03-23T11:13:48;10.90;99.90
27162;DHT22;54464;50.558;9.704;2023-03-23T11:18:53;11.30;99.90
27162;DHT22;54464;50.558;9.704;2023-03-23T11:21:22;11.30;99.90
27162;DHT22;54464;50.558;9.704;2023-03-23T11:23:59;11.30;99.90
27162;DHT22;54464;50.558;9.704;2023-03-23T11:26:28;11.30;99.90
27162;DHT22;54464;50.558;9.704;2023-03-23T11:31:39;12.00;99.90
27162;DHT22;54464;50.558;9.704;2023-03-23T11:34:17;12.10;99.90
27162;DHT22;54464;50.558;9.704;2023-03-23T11:36:52;11.80;99.90
27162;DHT22;54464;50.558;9.704;2023-03-23T11:39:30;11.70;99.90
27162;DHT22;54464;50.558;9.704;2023-03-23T11:42:12;11.70;99.90
27162;DHT22;54464;50.558;9.704;2023-03-23T11:44:43;11.40;99.90
27162;DHT22;54464;50.558;9.704;2023-03-23T11:47:30;11.20;99.90
27162;DHT22;54464;50.558;9.704;2023-03-23T11:50:12;11.20;99.90
27162;DHT22;54464;50.558;9.704;2023-03-23T11:55:13;11.90;99.90
27162;DHT22;54464;50.558;9.704;2023-03-23T11:57:40;12.30;99.90
27162;DHT22;54464;50.558;9.704;2023-03-23T12:00:20;12.20;99.90
27162;DHT22;54464;50.558;9.704;2023-03-23T12:02:57;12.30;99.90
27162;DHT22;54464;50.558;9.704;2023-03-23T12:11:29;12.60;99.90
27162;DHT22;54464;50.558;9.704;2023-03-23T12:19:13;12.80;99.90
27162;DHT22;54464;50.558;9.704;2023-03-23T12:22:02;12.50;99.90
27162;DHT22;54464;50.558;9.704;2023-03-23T12:24:50;12.30;99.90
27162;DHT22;54464;50.558;9.704;2023-03-23T12:30:15;12.10;99.90
27162;DHT22;54464;50.558;9.704;2023-03-23T12:48:41;11.80;99.90
27162;DHT22;54464;50.558;9.704;2023-03-23T13:01:42;11.80;99.90
27162;DHT22;54464;50.558;9.704;2023-03-23T13:04:13;11.80;99.90
27162;DHT22;54464;50.558;9.704;2023-03-23T13:06:42;11.80;99.90
27162;DHT22;54464;50.558;9.704;2023-03-23T13:09:39;11.80;99.90
27162;DHT22;54464;50.558;9.704;2023-03-23T13:12:08;11.70;99.90
27162;DHT22;54464;50.558;9.704;2023-03-23T13:23:15;11.80;99.90
27162;DHT22;54464;50.558;9.704;2023-03-23T13:26:08;11.80;99.90
27162;DHT22;54464;50.558;9.704;2023-03-23T13:31:29;11.80;99.90
27162;DHT22;54464;50.558;9.704;2023-03-23T13:36:37;11.80;99.90
27162;DHT22;54464;50.558;9.704;2023-03-23T13:39:06;11.80;99.90
27162;DHT22;54464;50.558;9.704;2023-03-23T13:47:25;11.80;99.90
27162;DHT22;54464;50.558;9.704;2023-03-23T13:50:43;11.80;99.90
27162;DHT22;54464;50.558;9.704;2023-03-23T13:53:13;11.70;99.90
27162;DHT22;54464;50.558;9.704;2023-03-23T13:55:42;11.80;99.90
27162;DHT22;54464;50.558;9.704;2023-03-23T13:58:22;11.80;99.90
27162;DHT22;54464;50.558;9.704;2023-03-23T14:01:01;11.90;99.90
27162;DHT22;54464;50.558;9.704;2023-03-23T14:13:32;12.10;99.90
27162;DHT22;54464;50.558;9.704;2023-03-23T14:16:01;12.20;99.90
27162;DHT22;54464;50.558;9.704;2023-03-23T14:18:36;12.20;99.90
27162;DHT22;54464;50.558;9.704;2023-03-23T14:21:02;12.30;99.90
27162;DHT22;54464;50.558;9.704;2023-03-23T14:23:32;12.40;99.90
27162;DHT22;54464;50.558;9.704;2023-03-23T14:26:04;12.40;99.90
27162;DHT22;54464;50.558;9.704;2023-03-23T14:28:39;12.50;99.90
27162;DHT22;54464;50.558;9.704;2023-03-23T14:31:19;12.60;99.90
27162;DHT22;54464;50.558;9.704;2023-03-23T14:33:45;12.60;99.90
27162;DHT22;54464;50.558;9.704;2023-03-23T14:36:14;12.60;99.90
27162;DHT22;54464;50.558;9.704;2023-03-23T14:38:40;12.70;99.90
27162;DHT22;54464;50.558;9.704;2023-03-23T14:41:10;12.70;99.90
27162;DHT22;54464;50.558;9.704;2023-03-23T14:43:37;12.80;99.90
27162;DHT22;54464;50.558;9.704;2023-03-23T14:46:07;13.00;99.90
27162;DHT22;54464;50.558;9.704;2023-03-23T14:48:33;13.00;99.90
27162;DHT22;54464;50.558;9.704;2023-03-23T14:51:02;13.30;99.90
27162;DHT22;54464;50.558;9.704;2023-03-23T14:53:38;13.30;99.90
27162;DHT22;54464;50.558;9.704;2023-03-23T14:56:12;13.20;99.90
27162;DHT22;54464;50.558;9.704;2023-03-23T14:58:38;13.30;99.90
27162;DHT22;54464;50.558;9.704;2023-03-23T15:01:10;13.10;99.90
27162;DHT22;54464;50.558;9.704;2023-03-23T15:06:27;12.90;99.90
27162;DHT22;54464;50.558;9.704;2023-03-23T15:08:57;13.00;99.90
27162;DHT22;54464;50.558;9.704;2023-03-23T15:11:31;13.00;99.90
27162;DHT22;54464;50.558;9.704;2023-03-23T15:14:00;13.20;99.90
27162;DHT22;54464;50.558;9.704;2023-03-23T15:16:33;13.20;99.90
27162;DHT22;54464;50.558;9.704;2023-03-23T15:19:03;13.30;99.90
27162;DHT22;54464;50.558;9.704;2023-03-23T15:21:34;13.20;99.90
27162;DHT22;54464;50.558;9.704;2023-03-23T15:24:01;13.20;99.90
27162;DHT22;54464;50.558;9.704;2023-03-23T15:26:34;13.10;99.90
27162;DHT22;54464;50.558;9.704;2023-03-23T15:29:17;13.10;99.90
27162;DHT22;54464;50.558;9.704;2023-03-23T15:31:48;13.00;99.90
27162;DHT22;54464;50.558;9.704;2023-03-23T15:34:33;13.00;99.90
27162;DHT22;54464;50.558;9.704;2023-03-23T15:37:13;13.00;99.90
27162;DHT22;54464;50.558;9.704;2023-03-23T15:39:41;12.90;99.90
27162;DHT22;54464;50.558;9.704;2023-03-23T15:44:56;12.90;99.90
27162;DHT22;54464;50.558;9.704;2023-03-23T15:47:22;12.90;99.90
27162;DHT22;54464;50.558;9.704;2023-03-23T15:50:03;12.90;99.90
27162;DHT22;54464;50.558;9.704;2023-03-23T15:52:29;12.80;99.90
27162;DHT22;54464;50.558;9.704;2023-03-23T15:54:55;12.80;99.90
27162;DHT22;54464;50.558;9.704;2023-03-23T15:57:20;12.80;99.90
27162;DHT22;54464;50.558;9.704;2023-03-23T15:59:46;12.80;99.90
27162;DHT22;54464;50.558;9.704;2023-03-23T16:02:22;12.90;99.90
27162;DHT22;54464;50.558;9.704;2023-03-23T16:04:50;12.90;99.90
27162;DHT22;54464;50.558;9.704;2023-03-23T16:07:21;13.00;99.90
27162;DHT22;54464;50.558;9.704;2023-03-23T16:09:47;13.00;99.90
27162;DHT22;54464;50.558;9.704;2023-03-23T16:12:13;13.00;99.90
27162;DHT22;54464;50.558;9.704;2023-03-23T16:14:39;13.00;99.90
27162;DHT22;54464;50.558;9.704;2023-03-23T16:17:09;13.00;99.90
27162;DHT22;54464;50.558;9.704;2023-03-23T16:19:36;12.90;99.90
27162;DHT22;54464;50.558;9.704;2023-03-23T16:22:01;12.90;99.90
27162;DHT22;54464;50.558;9.704;2023-03-23T16:24:27;12.90;99.90
27162;DHT22;54464;50.558;9.704;2023-03-23T16:26:52;12.90;99.90
27162;DHT22;54464;50.558;9.704;2023-03-23T16:29:18;12.90;99.90
27162;DHT22;54464;50.558;9.704;2023-03-23T16:31:44;12.80;99.90
27162;DHT22;54464;50.558;9.704;2023-03-23T16:34:09;12.80;99.90
27162;DHT22;54464;50.558;9.704;2023-03-23T16:36:35;12.80;99.90
27162;DHT22;54464;50.558;9.704;2023-03-23T16:39:01;12.80;99.90
27162;DHT22;54464;50.558;9.704;2023-03-23T16:41:27;12.70;99.90
27162;DHT22;54464;50.558;9.704;2023-03-23T16:43:53;12.70;99.90
27162;DHT22;54464;50.558;9.704;2023-03-23T16:46:19;12.70;99.90
27162;DHT22;54464;50.558;9.704;2023-03-23T16:48:44;12.70;99.90
27162;DHT22;54464;50.558;9.704;2023-03-23T16:51:10;12.70;99.90
27162;DHT22;54464;50.558;9.704;2023-03-23T16:53:36;12.60;99.90
27162;DHT22;54464;50.558;9.704;2023-03-23T16:56:02;12.60;99.90
27162;DHT22;54464;50.558;9.704;2023-03-23T16:58:28;12.60;99.90
27162;DHT22;54464;50.558;9.704;2023-03-23T17:00:54;12.60;99.90
27162;DHT22;54464;50.558;9.704;2023-03-23T17:03:20;12.60;99.90
27162;DHT22;54464;50.558;9.704;2023-03-23T17:05:49;12.60;99.90
27162;DHT22;54464;50.558;9.704;2023-03-23T17:08:15;12.60;99.90
27162;DHT22;54464;50.558;9.704;2023-03-23T17:10:41;12.60;99.90
27162;DHT22;54464;50.558;9.704;2023-03-23T17:13:08;12.60;99.90
27162;DHT22;54464;50.558;9.704;2023-03-23T17:15:37;12.50;99.90
27162;DHT22;54464;50.558;9.704;2023-03-23T17:18:03;12.50;99.90
27162;DHT22;54464;50.558;9.704;2023-03-23T17:20:29;12.40;99.90
27162;DHT22;54464;50.558;9.704;2023-03-23T17:22:55;12.40;99.90
27162;DHT22;54464;50.558;9.704;2023-03-23T17:25:21;12.30;99.90
27162;DHT22;54464;50.558;9.704;2023-03-23T17:27:47;12.30;99.90
27162;DHT22;54464;50.558;9.704;2023-03-23T17:30:12;12.30;99.90
27162;DHT22;54464;50.558;9.704;2023-03-23T17:32:38;12.20;99.90
27162;DHT22;54464;50.558;9.704;2023-03-23T17:35:04;12.20;99.90
27162;DHT22;54464;50.558;9.704;2023-03-23T17:37:31;12.20;99.90
27162;DHT22;54464;50.558;9.704;2023-03-23T17:39:57;12.10;99.90
27162;DHT22;54464;50.558;9.704;2023-03-23T17:42:22;12.20;99.90
27162;DHT22;54464;50.558;9.704;2023-03-23T17:44:48;12.10;99.90